Current | Forecast
Updated: 12:00 PM JST on January 20, 2018
Observed at Shonai Airport, Japan
Temperature 39°F
Windchill 34°F
Humidity 56%
Dew Point 25°F
Wind East at 8 mph
Pressure 29.95 in (Falling)
Conditions Mostly Cloudy
Visibility 6.2 miles
UV 2 out of 16
Clouds (FEW) : 5000 ft
Mostly Cloudy (BKN) : 6000 ft
Mostly Cloudy (BKN) : 7000 ft
Yesterday's Maximum 41°F
Yesterday's Minimum 36°F approx.
Yesterday's Heating Degree Days 27 approx.
Sunrise6:53 AM JST
Sunset4:44 PM JST
Moon Rise8:38 AM JST
Moon Set7:41 PM JST
Moon PhaseMoon Phase
Waxing Crescent
Raw METARMETAR RJSY 200300Z 09007KT 9999 FEW050 BKN060 BKN070 04/M04 Q1014


Monday
. High: 84° F.
Tuesday
. High: 82° F.
Wednesday
. High: 68° F.
Thursday
. High: 75° F.
Friday
. High: 73° F.
Saturday
. High: 66° F.
Sunday
. High: 66° F.
Monday
. High: 73° F.

Units: English | Metric

Find the Weather for any City, State or Zipcode, or Country:

U.S. State List | Severe Weather | Tropical Storms | Ski Conditions
United States | Canada | Central America | South America | Asia | Europe | Australia | Africa | Islands

Weather Underground

© Copyright 2018
The Weather Company, LLC